sensor_id;sensor_type;location;lat;lon;timestamp;pressure;altitude;pressure_sealevel;temperature;humidity
75221;BME280;63802;53.232;6.570;2023-08-20T00:00:17;102087.63;;;15.17;100.00
75221;BME280;63802;53.232;6.570;2023-08-20T00:02:45;102076.56;;;15.14;100.00
75221;BME280;63802;53.232;6.570;2023-08-20T00:05:12;102083.63;;;15.15;100.00
75221;BME280;63802;53.232;6.570;2023-08-20T00:07:37;102082.78;;;15.11;100.00
75221;BME280;63802;53.232;6.570;2023-08-20T00:10:03;102088.34;;;15.14;100.00
75221;BME280;63802;53.232;6.570;2023-08-20T00:12:32;102089.09;;;15.11;100.00
75221;BME280;63802;53.232;6.570;2023-08-20T00:14:59;102086.38;;;15.15;100.00
75221;BME280;63802;53.232;6.570;2023-08-20T00:17:31;102082.34;;;15.09;100.00
75221;BME280;63802;53.232;6.570;2023-08-20T00:19:57;102097.63;;;15.06;100.00
75221;BME280;63802;53.232;6.570;2023-08-20T00:22:23;102098.75;;;15.05;100.00
75221;BME280;63802;53.232;6.570;2023-08-20T00:24:50;102105.06;;;15.06;100.00
75221;BME280;63802;53.232;6.570;2023-08-20T00:27:16;102098.41;;;15.07;100.00
75221;BME280;63802;53.232;6.570;2023-08-20T00:29:42;102110.84;;;15.01;100.00
75221;BME280;63802;53.232;6.570;2023-08-20T00:32:07;102098.38;;;14.88;100.00
75221;BME280;63802;53.232;6.570;2023-08-20T00:34:33;102102.66;;;14.85;100.00
75221;BME280;63802;53.232;6.570;2023-08-20T00:36:58;102098.75;;;14.86;100.00
75221;BME280;63802;53.232;6.570;2023-08-20T00:39:24;102067.69;;;14.66;100.00
75221;BME280;63802;53.232;6.570;2023-08-20T00:41:49;102081.44;;;14.66;100.00
75221;BME280;63802;53.232;6.570;2023-08-20T00:44:14;102112.72;;;14.77;100.00
75221;BME280;63802;53.232;6.570;2023-08-20T00:46:40;102111.53;;;14.78;100.00
75221;BME280;63802;53.232;6.570;2023-08-20T00:49:05;102094.03;;;14.67;100.00
75221;BME280;63802;53.232;6.570;2023-08-20T00:51:33;102083.41;;;14.66;100.00
75221;BME280;63802;53.232;6.570;2023-08-20T00:53:59;102113.41;;;14.74;100.00
75221;BME280;63802;53.232;6.570;2023-08-20T00:56:26;102112.56;;;14.70;100.00
75221;BME280;63802;53.232;6.570;2023-08-20T00:58:53;102111.66;;;14.66;100.00
75221;BME280;63802;53.232;6.570;2023-08-20T01:01:19;102128.25;;;14.70;100.00
75221;BME280;63802;53.232;6.570;2023-08-20T01:03:44;102096.91;;;14.55;100.00
75221;BME280;63802;53.232;6.570;2023-08-20T01:06:39;102120.06;;;14.73;100.00
75221;BME280;63802;53.232;6.570;2023-08-20T01:09:23;102115.31;;;14.70;100.00
75221;BME280;63802;53.232;6.570;2023-08-20T01:11:59;102107.28;;;14.81;100.00
75221;BME280;63802;53.232;6.570;2023-08-20T01:14:27;102110.13;;;14.85;100.00
75221;BME280;63802;53.232;6.570;2023-08-20T01:16:53;102105.59;;;14.76;100.00
75221;BME280;63802;53.232;6.570;2023-08-20T01:19:22;102107.91;;;14.74;100.00
75221;BME280;63802;53.232;6.570;2023-08-20T01:22:15;102116.97;;;14.75;100.00
75221;BME280;63802;53.232;6.570;2023-08-20T01:25:11;102117.31;;;14.73;100.00
75221;BME280;63802;53.232;6.570;2023-08-20T01:30:46;102119.94;;;14.86;100.00
75221;BME280;63802;53.232;6.570;2023-08-20T01:33:13;102123.34;;;14.79;100.00
75221;BME280;63802;53.232;6.570;2023-08-20T01:35:40;102132.22;;;14.72;100.00
75221;BME280;63802;53.232;6.570;2023-08-20T01:38:05;102131.31;;;14.68;100.00
75221;BME280;63802;53.232;6.570;2023-08-20T01:40:31;102150.13;;;14.66;100.00
75221;BME280;63802;53.232;6.570;2023-08-20T01:42:57;102138.97;;;14.59;100.00
75221;BME280;63802;53.232;6.570;2023-08-20T01:45:23;102155.38;;;14.56;100.00
75221;BME280;63802;53.232;6.570;2023-08-20T01:47:49;102149.00;;;14.52;100.00
75221;BME280;63802;53.232;6.570;2023-08-20T01:50:14;102159.91;;;14.48;100.00
75221;BME280;63802;53.232;6.570;2023-08-20T01:52:40;102142.03;;;14.39;100.00
75221;BME280;63802;53.232;6.570;2023-08-20T01:55:06;102156.72;;;14.46;100.00
75221;BME280;63802;53.232;6.570;2023-08-20T01:57:31;102156.28;;;14.44;100.00
75221;BME280;63802;53.232;6.570;2023-08-20T01:59:57;102151.94;;;14.43;100.00
75221;BME280;63802;53.232;6.570;2023-08-20T02:02:23;102169.22;;;14.44;100.00
75221;BME280;63802;53.232;6.570;2023-08-20T02:04:49;102165.25;;;14.41;100.00
75221;BME280;63802;53.232;6.570;2023-08-20T02:07:14;102158.13;;;14.40;100.00
75221;BME280;63802;53.232;6.570;2023-08-20T02:09:40;102162.84;;;14.40;100.00
75221;BME280;63802;53.232;6.570;2023-08-20T02:12:05;102160.56;;;14.42;100.00
75221;BME280;63802;53.232;6.570;2023-08-20T02:14:31;102170.81;;;14.45;100.00
75221;BME280;63802;53.232;6.570;2023-08-20T02:17:00;102165.69;;;14.43;100.00
75221;BME280;63802;53.232;6.570;2023-08-20T02:19:26;102166.13;;;14.45;100.00
75221;BME280;63802;53.232;6.570;2023-08-20T02:21:52;102177.97;;;14.49;100.00
75221;BME280;63802;53.232;6.570;2023-08-20T02:24:18;102150.28;;;14.39;100.00
75221;BME280;63802;53.232;6.570;2023-08-20T02:26:43;102154.41;;;14.48;100.00
75221;BME280;63802;53.232;6.570;2023-08-20T02:29:08;102161.75;;;14.60;100.00
75221;BME280;63802;53.232;6.570;2023-08-20T02:31:35;102153.59;;;14.63;100.00
75221;BME280;63802;53.232;6.570;2023-08-20T02:34:00;102146.66;;;14.69;100.00
75221;BME280;63802;53.232;6.570;2023-08-20T02:36:29;102153.16;;;14.96;100.00
75221;BME280;63802;53.232;6.570;2023-08-20T02:38:54;102146.00;;;14.92;100.00
75221;BME280;63802;53.232;6.570;2023-08-20T02:41:19;102122.56;;;14.98;100.00
75221;BME280;63802;53.232;6.570;2023-08-20T02:43:45;102131.56;;;15.14;100.00
75221;BME280;63802;53.232;6.570;2023-08-20T02:46:11;102118.44;;;15.07;100.00
75221;BME280;63802;53.232;6.570;2023-08-20T02:48:36;102128.72;;;15.29;100.00
75221;BME280;63802;53.232;6.570;2023-08-20T02:51:01;102106.13;;;15.39;100.00
75221;BME280;63802;53.232;6.570;2023-08-20T02:53:28;102121.56;;;15.63;100.00
75221;BME280;63802;53.232;6.570;2023-08-20T02:55:53;102113.19;;;15.79;100.00
75221;BME280;63802;53.232;6.570;2023-08-20T02:58:19;102119.44;;;15.76;100.00
75221;BME280;63802;53.232;6.570;2023-08-20T03:00:44;102117.03;;;15.74;100.00
75221;BME280;63802;53.232;6.570;2023-08-20T03:03:10;102124.06;;;15.72;100.00
75221;BME280;63802;53.232;6.570;2023-08-20T03:05:36;102119.53;;;15.60;100.00
75221;BME280;63802;53.232;6.570;2023-08-20T03:08:01;102130.06;;;15.55;100.00
75221;BME280;63802;53.232;6.570;2023-08-20T03:10:27;102127.78;;;15.41;100.00
75221;BME280;63802;53.232;6.570;2023-08-20T03:12:53;102116.19;;;15.32;100.00
75221;BME280;63802;53.232;6.570;2023-08-20T03:15:18;102125.31;;;15.17;100.00
75221;BME280;63802;53.232;6.570;2023-08-20T03:17:43;102122.94;;;15.15;100.00
75221;BME280;63802;53.232;6.570;2023-08-20T03:20:09;102115.69;;;15.07;100.00
75221;BME280;63802;53.232;6.570;2023-08-20T03:22:36;102115.13;;;15.17;100.00
75221;BME280;63802;53.232;6.570;2023-08-20T03:25:03;102093.69;;;15.26;100.00
75221;BME280;63802;53.232;6.570;2023-08-20T03:27:29;102111.94;;;15.34;100.00
75221;BME280;63802;53.232;6.570;2023-08-20T03:29:54;102106.84;;;15.36;100.00
75221;BME280;63802;53.232;6.570;2023-08-20T03:32:20;102090.16;;;15.26;100.00
75221;BME280;63802;53.232;6.570;2023-08-20T03:34:46;102120.31;;;15.41;100.00
75221;BME280;63802;53.232;6.570;2023-08-20T03:37:11;102109.44;;;15.45;100.00
75221;BME280;63802;53.232;6.570;2023-08-20T03:39:37;102092.00;;;15.41;100.00
75221;BME280;63802;53.232;6.570;2023-08-20T03:42:02;102107.00;;;15.43;100.00
75221;BME280;63802;53.232;6.570;2023-08-20T03:44:28;102111.09;;;15.50;100.00
75221;BME280;63802;53.232;6.570;2023-08-20T03:46:55;102122.28;;;15.41;100.00
75221;BME280;63802;53.232;6.570;2023-08-20T03:49:20;102120.75;;;15.24;100.00
75221;BME280;63802;53.232;6.570;2023-08-20T03:51:45;102130.25;;;15.27;100.00
75221;BME280;63802;53.232;6.570;2023-08-20T03:54:11;102133.66;;;15.20;100.00
75221;BME280;63802;53.232;6.570;2023-08-20T03:56:39;102139.50;;;15.19;100.00
75221;BME280;63802;53.232;6.570;2023-08-20T03:59:05;102128.34;;;15.12;100.00
75221;BME280;63802;53.232;6.570;2023-08-20T04:01:33;102130.38;;;15.15;100.00
75221;BME280;63802;53.232;6.570;2023-08-20T04:03:58;102127.06;;;15.06;100.00
75221;BME280;63802;53.232;6.570;2023-08-20T04:06:24;102135.31;;;15.06;100.00
75221;BME280;63802;53.232;6.570;2023-08-20T04:08:49;102150.13;;;15.01;100.00
75221;BME280;63802;53.232;6.570;2023-08-20T04:11:15;102155.53;;;14.98;100.00
75221;BME280;63802;53.232;6.570;2023-08-20T04:13:40;102155.38;;;14.91;100.00
75221;BME280;63802;53.232;6.570;2023-08-20T04:16:08;102155.22;;;14.84;100.00
75221;BME280;63802;53.232;6.570;2023-08-20T04:18:33;102157.13;;;14.80;100.00
75221;BME280;63802;53.232;6.570;2023-08-20T04:20:59;102146.41;;;14.74;100.00
75221;BME280;63802;53.232;6.570;2023-08-20T04:23:25;102156.16;;;14.72;100.00
75221;BME280;63802;53.232;6.570;2023-08-20T04:25:50;102171.56;;;14.76;100.00
75221;BME280;63802;53.232;6.570;2023-08-20T04:28:15;102170.53;;;14.65;100.00
75221;BME280;63802;53.232;6.570;2023-08-20T04:30:41;102178.41;;;14.67;100.00
75221;BME280;63802;53.232;6.570;2023-08-20T04:33:06;102173.56;;;14.60;100.00
75221;BME280;63802;53.232;6.570;2023-08-20T04:35:32;102172.69;;;14.56;100.00
75221;BME280;63802;53.232;6.570;2023-08-20T04:37:58;102164.88;;;14.58;100.00
75221;BME280;63802;53.232;6.570;2023-08-20T04:40:24;102172.84;;;14.63;100.00
75221;BME280;63802;53.232;6.570;2023-08-20T04:42:51;102175.28;;;14.68;100.00
75221;BME280;63802;53.232;6.570;2023-08-20T04:45:16;102177.59;;;14.66;100.00
75221;BME280;63802;53.232;6.570;2023-08-20T04:47:44;102179.13;;;14.64;100.00
75221;BME280;63802;53.232;6.570;2023-08-20T04:50:10;102179.91;;;14.64;100.00
75221;BME280;63802;53.232;6.570;2023-08-20T04:52:35;102180.34;;;14.66;100.00
75221;BME280;63802;53.232;6.570;2023-08-20T04:55:04;102188.00;;;14.73;100.00
75221;BME280;63802;53.232;6.570;2023-08-20T04:57:29;102179.38;;;14.74;100.00
75221;BME280;63802;53.232;6.570;2023-08-20T04:59:55;102177.78;;;14.73;100.00
75221;BME280;63802;53.232;6.570;2023-08-20T05:02:21;102191.34;;;14.82;100.00
75221;BME280;63802;53.232;6.570;2023-08-20T05:04:46;102194.59;;;14.88;100.00
75221;BME280;63802;53.232;6.570;2023-08-20T05:07:12;102192.72;;;14.92;100.00
75221;BME280;63802;53.232;6.570;2023-08-20T05:09:37;102203.44;;;14.97;100.00
75221;BME280;63802;53.232;6.570;2023-08-20T05:12:03;102200.44;;;15.02;100.00
75221;BME280;63802;53.232;6.570;2023-08-20T05:14:29;102201.66;;;15.04;100.00
75221;BME280;63802;53.232;6.570;2023-08-20T05:16:55;102202.16;;;15.10;100.00
75221;BME280;63802;53.232;6.570;2023-08-20T05:19:20;102189.16;;;15.07;100.00
75221;BME280;63802;53.232;6.570;2023-08-20T05:21:46;102208.72;;;15.21;100.00
75221;BME280;63802;53.232;6.570;2023-08-20T05:24:12;102191.75;;;15.19;100.00
75221;BME280;63802;53.232;6.570;2023-08-20T05:26:37;102212.84;;;15.30;100.00
75221;BME280;63802;53.232;6.570;2023-08-20T05:29:03;102199.44;;;15.29;100.00
75221;BME280;63802;53.232;6.570;2023-08-20T05:31:28;102190.91;;;15.34;100.00
75221;BME280;63802;53.232;6.570;2023-08-20T05:33:53;102203.84;;;15.49;100.00
75221;BME280;63802;53.232;6.570;2023-08-20T05:36:19;102207.25;;;15.62;100.00
75221;BME280;63802;53.232;6.570;2023-08-20T05:38:44;102202.66;;;15.69;100.00
75221;BME280;63802;53.232;6.570;2023-08-20T05:41:10;102207.56;;;15.79;100.00
75221;BME280;63802;53.232;6.570;2023-08-20T05:43:35;102210.47;;;15.86;100.00
75221;BME280;63802;53.232;6.570;2023-08-20T05:46:03;102206.31;;;15.96;100.00
75221;BME280;63802;53.232;6.570;2023-08-20T05:48:29;102204.16;;;16.05;100.00
75221;BME280;63802;53.232;6.570;2023-08-20T05:50:55;102208.25;;;16.15;100.00
75221;BME280;63802;53.232;6.570;2023-08-20T05:53:22;102210.69;;;16.20;100.00
75221;BME280;63802;53.232;6.570;2023-08-20T05:55:47;102203.00;;;16.29;100.00
75221;BME280;63802;53.232;6.570;2023-08-20T05:58:13;102210.63;;;16.39;100.00
75221;BME280;63802;53.232;6.570;2023-08-20T06:00:38;102199.75;;;16.46;100.00
75221;BME280;63802;53.232;6.570;2023-08-20T06:03:04;102203.97;;;16.62;100.00
75221;BME280;63802;53.232;6.570;2023-08-20T06:05:29;102200.56;;;16.72;100.00
75221;BME280;63802;53.232;6.570;2023-08-20T06:07:55;102184.94;;;16.80;100.00
75221;BME280;63802;53.232;6.570;2023-08-20T06:10:21;102200.22;;;17.00;100.00
75221;BME280;63802;53.232;6.570;2023-08-20T06:12:47;102209.00;;;17.09;100.00
75221;BME280;63802;53.232;6.570;2023-08-20T06:15:13;102197.00;;;17.24;100.00
75221;BME280;63802;53.232;6.570;2023-08-20T06:17:39;102201.47;;;17.36;100.00
75221;BME280;63802;53.232;6.570;2023-08-20T06:20:05;102193.75;;;17.49;100.00
75221;BME280;63802;53.232;6.570;2023-08-20T06:22:32;102209.00;;;17.69;100.00
75221;BME280;63802;53.232;6.570;2023-08-20T06:24:58;102212.38;;;17.85;100.00
75221;BME280;63802;53.232;6.570;2023-08-20T06:27:23;102202.22;;;17.96;100.00
75221;BME280;63802;53.232;6.570;2023-08-20T06:29:49;102213.47;;;18.17;100.00
75221;BME280;63802;53.232;6.570;2023-08-20T06:32:14;102221.06;;;18.27;100.00
75221;BME280;63802;53.232;6.570;2023-08-20T06:34:40;102212.78;;;18.27;100.00
75221;BME280;63802;53.232;6.570;2023-08-20T06:37:05;102214.50;;;18.42;100.00
75221;BME280;63802;53.232;6.570;2023-08-20T06:39:30;102221.00;;;18.60;100.00
75221;BME280;63802;53.232;6.570;2023-08-20T06:41:56;102220.34;;;18.78;100.00
75221;BME280;63802;53.232;6.570;2023-08-20T06:44:21;102227.56;;;18.93;100.00
75221;BME280;63802;53.232;6.570;2023-08-20T06:46:47;102230.06;;;19.15;100.00
75221;BME280;63802;53.232;6.570;2023-08-20T06:49:12;102221.84;;;19.29;100.00
75221;BME280;63802;53.232;6.570;2023-08-20T06:51:37;102236.97;;;19.46;100.00
75221;BME280;63802;53.232;6.570;2023-08-20T06:54:04;102236.28;;;19.67;100.00
75221;BME280;63802;53.232;6.570;2023-08-20T06:56:31;102231.19;;;19.72;100.00
75221;BME280;63802;53.232;6.570;2023-08-20T06:58:56;102239.94;;;19.95;100.00
75221;BME280;63802;53.232;6.570;2023-08-20T07:01:22;102238.34;;;20.01;100.00
75221;BME280;63802;53.232;6.570;2023-08-20T07:03:47;102253.50;;;20.29;100.00
75221;BME280;63802;53.232;6.570;2023-08-20T07:06:13;102254.31;;;20.43;100.00
75221;BME280;63802;53.232;6.570;2023-08-20T07:08:44;102244.03;;;20.65;100.00
75221;BME280;63802;53.232;6.570;2023-08-20T07:11:10;102246.41;;;20.63;100.00
75221;BME280;63802;53.232;6.570;2023-08-20T07:13:36;102254.31;;;20.82;100.00
75221;BME280;63802;53.232;6.570;2023-08-20T07:16:02;102257.47;;;20.98;100.00
75221;BME280;63802;53.232;6.570;2023-08-20T07:18:27;102252.72;;;21.06;100.00
75221;BME280;63802;53.232;6.570;2023-08-20T07:20:54;102254.28;;;21.17;100.00
75221;BME280;63802;53.232;6.570;2023-08-20T07:23:20;102268.88;;;21.50;100.00
75221;BME280;63802;53.232;6.570;2023-08-20T07:25:46;102266.84;;;21.57;100.00
75221;BME280;63802;53.232;6.570;2023-08-20T07:28:12;102276.72;;;21.76;100.00
75221;BME280;63802;53.232;6.570;2023-08-20T07:30:37;102254.47;;;21.79;100.00
75221;BME280;63802;53.232;6.570;2023-08-20T07:33:03;102259.66;;;21.67;100.00
75221;BME280;63802;53.232;6.570;2023-08-20T07:35:29;102262.06;;;21.68;100.00
75221;BME280;63802;53.232;6.570;2023-08-20T07:37:54;102271.47;;;21.99;100.00
75221;BME280;63802;53.232;6.570;2023-08-20T07:40:20;102274.50;;;22.22;100.00
75221;BME280;63802;53.232;6.570;2023-08-20T07:42:45;102275.94;;;22.44;100.00
75221;BME280;63802;53.232;6.570;2023-08-20T07:45:11;102276.97;;;22.72;100.00
75221;BME280;63802;53.232;6.570;2023-08-20T07:47:37;102276.94;;;22.75;100.00
75221;BME280;63802;53.232;6.570;2023-08-20T07:50:03;102283.34;;;22.68;100.00
75221;BME280;63802;53.232;6.570;2023-08-20T07:52:30;102277.28;;;22.84;100.00
75221;BME280;63802;53.232;6.570;2023-08-20T07:54:55;102279.50;;;23.00;100.00
75221;BME280;63802;53.232;6.570;2023-08-20T07:57:20;102270.53;;;23.19;100.00
75221;BME280;63802;53.232;6.570;2023-08-20T07:59:47;102273.63;;;23.28;100.00
75221;BME280;63802;53.232;6.570;2023-08-20T08:02:12;102268.06;;;23.28;100.00
75221;BME280;63802;53.232;6.570;2023-08-20T08:04:37;102267.81;;;23.53;100.00
75221;BME280;63802;53.232;6.570;2023-08-20T08:07:03;102278.00;;;23.66;100.00
75221;BME280;63802;53.232;6.570;2023-08-20T08:09:30;102276.69;;;23.44;100.00
75221;BME280;63802;53.232;6.570;2023-08-20T08:11:57;102272.28;;;23.77;100.00
75221;BME280;63802;53.232;6.570;2023-08-20T08:14:23;102269.06;;;23.78;100.00
75221;BME280;63802;53.232;6.570;2023-08-20T08:16:48;102276.78;;;23.97;100.00
75221;BME280;63802;53.232;6.570;2023-08-20T08:19:14;102269.69;;;23.93;100.00
75221;BME280;63802;53.232;6.570;2023-08-20T08:21:41;102284.97;;;23.81;100.00
75221;BME280;63802;53.232;6.570;2023-08-20T08:24:07;102286.16;;;23.13;100.00
75221;BME280;63802;53.232;6.570;2023-08-20T08:26:34;102279.06;;;22.53;100.00
75221;BME280;63802;53.232;6.570;2023-08-20T08:29:00;102287.69;;;22.73;100.00
75221;BME280;63802;53.232;6.570;2023-08-20T08:31:25;102268.69;;;22.64;100.00
75221;BME280;63802;53.232;6.570;2023-08-20T08:33:51;102291.69;;;22.68;100.00
75221;BME280;63802;53.232;6.570;2023-08-20T08:36:16;102284.97;;;22.66;100.00
75221;BME280;63802;53.232;6.570;2023-08-20T08:38:45;102295.22;;;22.76;100.00
75221;BME280;63802;53.232;6.570;2023-08-20T08:41:12;102294.06;;;22.74;100.00
75221;BME280;63802;53.232;6.570;2023-08-20T08:43:39;102295.66;;;22.71;100.00
75221;BME280;63802;53.232;6.570;2023-08-20T08:46:07;102301.31;;;22.53;100.00
75221;BME280;63802;53.232;6.570;2023-08-20T08:48:34;102302.22;;;22.43;100.00
75221;BME280;63802;53.232;6.570;2023-08-20T08:51:03;102309.28;;;22.51;100.00
75221;BME280;63802;53.232;6.570;2023-08-20T08:53:30;102306.19;;;22.42;100.00
75221;BME280;63802;53.232;6.570;2023-08-20T08:55:58;102299.03;;;22.41;100.00
75221;BME280;63802;53.232;6.570;2023-08-20T08:58:23;102304.19;;;22.43;100.00
75221;BME280;63802;53.232;6.570;2023-08-20T09:00:49;102302.88;;;22.61;100.00
75221;BME280;63802;53.232;6.570;2023-08-20T09:03:15;102305.63;;;22.68;100.00
75221;BME280;63802;53.232;6.570;2023-08-20T09:05:49;102304.81;;;22.72;100.00
75221;BME280;63802;53.232;6.570;2023-08-20T09:08:22;102306.94;;;22.46;100.00
75221;BME280;63802;53.232;6.570;2023-08-20T09:10:51;102306.94;;;22.46;100.00
75221;BME280;63802;53.232;6.570;2023-08-20T09:13:17;102304.63;;;22.38;100.00
75221;BME280;63802;53.232;6.570;2023-08-20T09:15:43;102314.00;;;22.58;100.00
75221;BME280;63802;53.232;6.570;2023-08-20T09:18:11;102318.78;;;22.64;100.00
75221;BME280;63802;53.232;6.570;2023-08-20T09:20:37;102325.97;;;22.62;100.00
75221;BME280;63802;53.232;6.570;2023-08-20T09:23:03;102318.84;;;22.50;100.00
75221;BME280;63802;53.232;6.570;2023-08-20T09:25:29;102334.66;;;22.67;100.00
75221;BME280;63802;53.232;6.570;2023-08-20T09:27:54;102337.84;;;22.70;100.00
75221;BME280;63802;53.232;6.570;2023-08-20T09:30:20;102337.75;;;22.80;100.00
75221;BME280;63802;53.232;6.570;2023-08-20T09:33:04;102323.81;;;22.84;100.00
75221;BME280;63802;53.232;6.570;2023-08-20T09:35:30;102317.00;;;22.85;100.00
75221;BME280;63802;53.232;6.570;2023-08-20T09:38:00;102321.47;;;22.79;100.00
75221;BME280;63802;53.232;6.570;2023-08-20T09:40:27;102319.09;;;22.74;100.00
75221;BME280;63802;53.232;6.570;2023-08-20T09:42:54;102322.94;;;22.94;100.00
75221;BME280;63802;53.232;6.570;2023-08-20T09:45:20;102322.47;;;22.99;100.00
75221;BME280;63802;53.232;6.570;2023-08-20T09:47:48;102318.41;;;23.10;100.00
75221;BME280;63802;53.232;6.570;2023-08-20T09:50:17;102307.59;;;23.16;100.00
75221;BME280;63802;53.232;6.570;2023-08-20T09:52:54;102310.19;;;23.37;100.00
75221;BME280;63802;53.232;6.570;2023-08-20T09:55:21;102318.69;;;23.60;100.00
75221;BME280;63802;53.232;6.570;2023-08-20T09:57:47;102326.06;;;23.77;100.00
75221;BME280;63802;53.232;6.570;2023-08-20T10:00:13;102327.16;;;23.87;100.00
75221;BME280;63802;53.232;6.570;2023-08-20T10:02:41;102321.78;;;23.99;100.00
75221;BME280;63802;53.232;6.570;2023-08-20T10:05:08;102333.28;;;24.09;100.00
75221;BME280;63802;53.232;6.570;2023-08-20T10:07:34;102329.38;;;23.99;100.00
75221;BME280;63802;53.232;6.570;2023-08-20T10:10:02;102327.50;;;24.23;100.00
75221;BME280;63802;53.232;6.570;2023-08-20T10:12:29;102329.53;;;24.19;100.00
75221;BME280;63802;53.232;6.570;2023-08-20T10:14:58;102327.69;;;24.62;100.00
75221;BME280;63802;53.232;6.570;2023-08-20T10:17:24;102326.03;;;24.68;100.00
75221;BME280;63802;53.232;6.570;2023-08-20T10:19:53;102335.06;;;25.02;100.00
75221;BME280;63802;53.232;6.570;2023-08-20T10:22:19;102338.50;;;25.33;100.00
75221;BME280;63802;53.232;6.570;2023-08-20T10:24:49;102334.25;;;25.48;100.00
75221;BME280;63802;53.232;6.570;2023-08-20T10:27:31;102338.69;;;25.85;100.00
75221;BME280;63802;53.232;6.570;2023-08-20T10:29:58;102328.28;;;26.05;100.00
75221;BME280;63802;53.232;6.570;2023-08-20T10:32:54;102330.16;;;26.63;100.00
75221;BME280;63802;53.232;6.570;2023-08-20T10:35:31;102329.16;;;27.06;100.00
75221;BME280;63802;53.232;6.570;2023-08-20T10:38:14;102327.00;;;27.42;100.00
75221;BME280;63802;53.232;6.570;2023-08-20T10:40:52;102325.59;;;27.63;100.00
75221;BME280;63802;53.232;6.570;2023-08-20T10:43:38;102323.84;;;27.81;100.00
75221;BME280;63802;53.232;6.570;2023-08-20T10:46:08;102320.38;;;28.19;100.00
75221;BME280;63802;53.232;6.570;2023-08-20T10:48:39;102312.72;;;28.07;100.00
75221;BME280;63802;53.232;6.570;2023-08-20T10:54:18;102307.31;;;28.25;99.95
75221;BME280;63802;53.232;6.570;2023-08-20T10:56:53;102322.25;;;28.85;97.19
75221;BME280;63802;53.232;6.570;2023-08-20T10:59:27;102310.84;;;28.67;91.12
75221;BME280;63802;53.232;6.570;2023-08-20T11:01:54;102317.44;;;28.85;92.85
75221;BME280;63802;53.232;6.570;2023-08-20T11:04:21;102309.59;;;28.55;86.21
75221;BME280;63802;53.232;6.570;2023-08-20T11:06:50;102314.06;;;28.52;90.12
75221;BME280;63802;53.232;6.570;2023-08-20T11:09:17;102316.56;;;28.63;90.67
75221;BME280;63802;53.232;6.570;2023-08-20T11:11:46;102323.44;;;28.62;92.71
75221;BME280;63802;53.232;6.570;2023-08-20T11:14:14;102310.84;;;28.67;94.21
75221;BME280;63802;53.232;6.570;2023-08-20T11:16:41;102311.81;;;28.35;90.67
75221;BME280;63802;53.232;6.570;2023-08-20T11:19:07;102323.06;;;28.73;80.90
75221;BME280;63802;53.232;6.570;2023-08-20T11:21:37;102316.31;;;29.30;79.55
75221;BME280;63802;53.232;6.570;2023-08-20T11:24:03;102311.09;;;29.41;74.97
75221;BME280;63802;53.232;6.570;2023-08-20T11:26:30;102321.88;;;29.64;74.50
75221;BME280;63802;53.232;6.570;2023-08-20T11:28:56;102321.88;;;29.42;73.64
75221;BME280;63802;53.232;6.570;2023-08-20T11:31:21;102318.47;;;29.26;76.88
75221;BME280;63802;53.232;6.570;2023-08-20T11:33:49;102316.66;;;29.32;73.81
75221;BME280;63802;53.232;6.570;2023-08-20T11:36:15;102313.84;;;29.32;74.03
75221;BME280;63802;53.232;6.570;2023-08-20T11:38:42;102305.84;;;29.30;75.48
75221;BME280;63802;53.232;6.570;2023-08-20T11:41:07;102317.09;;;29.52;68.09
75221;BME280;63802;53.232;6.570;2023-08-20T11:43:33;102316.94;;;29.46;76.61
75221;BME280;63802;53.232;6.570;2023-08-20T11:45:59;102326.22;;;28.49;78.25
75221;BME280;63802;53.232;6.570;2023-08-20T11:48:25;102314.63;;;28.35;80.22
75221;BME280;63802;53.232;6.570;2023-08-20T11:50:51;102323.44;;;28.62;81.01
75221;BME280;63802;53.232;6.570;2023-08-20T11:53:23;102332.06;;;28.55;81.49
75221;BME280;63802;53.232;6.570;2023-08-20T11:55:49;102321.94;;;28.70;83.45
75221;BME280;63802;53.232;6.570;2023-08-20T11:58:14;102327.56;;;27.78;84.76
75221;BME280;63802;53.232;6.570;2023-08-20T12:00:40;102326.34;;;28.33;87.18
75221;BME280;63802;53.232;6.570;2023-08-20T12:03:08;102320.59;;;28.12;71.52
75221;BME280;63802;53.232;6.570;2023-08-20T12:05:34;102301.25;;;28.39;74.75
75221;BME280;63802;53.232;6.570;2023-08-20T12:08:03;102325.28;;;28.15;71.57
75221;BME280;63802;53.232;6.570;2023-08-20T12:10:30;102318.56;;;28.00;80.80
75221;BME280;63802;53.232;6.570;2023-08-20T12:12:57;102319.38;;;28.50;78.12
75221;BME280;63802;53.232;6.570;2023-08-20T12:15:24;102313.81;;;28.85;77.72
75221;BME280;63802;53.232;6.570;2023-08-20T12:17:57;102296.97;;;29.32;70.15
75221;BME280;63802;53.232;6.570;2023-08-20T12:20:23;102308.47;;;29.68;70.25
75221;BME280;63802;53.232;6.570;2023-08-20T12:22:49;102309.34;;;29.56;70.04
75221;BME280;63802;53.232;6.570;2023-08-20T12:25:14;102315.59;;;29.60;67.59
75221;BME280;63802;53.232;6.570;2023-08-20T12:27:41;102299.69;;;29.66;69.53
75221;BME280;63802;53.232;6.570;2023-08-20T12:30:07;102306.94;;;29.33;68.21
75221;BME280;63802;53.232;6.570;2023-08-20T12:32:32;102308.00;;;28.79;71.55
75221;BME280;63802;53.232;6.570;2023-08-20T12:34:57;102301.38;;;28.48;72.95
75221;BME280;63802;53.232;6.570;2023-08-20T12:37:23;102301.84;;;28.72;77.42
75221;BME280;63802;53.232;6.570;2023-08-20T12:39:48;102302.06;;;29.11;73.09
75221;BME280;63802;53.232;6.570;2023-08-20T12:42:14;102302.50;;;28.76;73.72
75221;BME280;63802;53.232;6.570;2023-08-20T12:44:40;102293.78;;;28.95;70.22